createdAt,value
2017-05-01T00:00:06.433Z,1012.3
2017-05-01T00:01:15.318Z,1012.24
2017-05-01T00:02:24.533Z,1012.21
2017-05-01T00:03:33.422Z,1012.24
2017-05-01T00:04:43.764Z,1012.24
2017-05-01T00:05:52.979Z,1012.26
2017-05-01T00:07:02.515Z,1012.27
2017-05-01T00:08:12.053Z,1012.22
2017-05-01T00:09:21.917Z,1012.31
2017-05-01T00:10:31.231Z,1012.23
2017-05-01T00:11:40.778Z,1012.25
2017-05-01T00:12:49.992Z,1012.25
2017-05-01T00:13:59.206Z,1012.26
2017-05-01T00:15:08.746Z,1012.26
2017-05-01T00:16:17.789Z,1012.23
2017-05-01T00:17:26.674Z,1012.24
2017-05-01T00:18:36.540Z,1012.22
2017-05-01T00:19:45.753Z,1012.3
2017-05-01T00:20:55.301Z,1012.27
2017-05-01T00:22:04.665Z,1012.32
2017-05-01T00:23:13.877Z,1012.25
2017-05-01T00:24:23.420Z,1012.27
2017-05-01T00:25:33.286Z,1012.22
2017-05-01T00:26:42.175Z,1012.26
2017-05-01T00:27:51.222Z,1012.26
2017-05-01T00:29:01.416Z,1012.25
2017-05-01T00:30:10.955Z,1012.19
2017-05-01T00:31:20.163Z,1012.28
2017-05-01T00:32:29.383Z,1012.28
2017-05-01T00:33:38.754Z,1012.24
2017-05-01T00:34:47.980Z,1012.28
2017-05-01T00:35:57.841Z,1012.33
2017-05-01T00:37:07.054Z,1012.31
2017-05-01T00:38:16.925Z,1012.29
2017-05-01T00:39:26.838Z,1012.35
2017-05-01T00:40:36.377Z,1012.34
2017-05-01T00:41:45.589Z,1012.33
2017-05-01T00:42:55.123Z,1012.43
2017-05-01T00:44:04.989Z,1012.42
2017-05-01T00:45:14.097Z,1012.39
2017-05-01T00:46:22.986Z,1012.31
2017-05-01T00:47:31.878Z,1012.43
2017-05-01T00:48:41.417Z,1012.39
2017-05-01T00:49:50.628Z,1012.34
2017-05-01T00:51:00.419Z,1012.33
2017-05-01T00:52:09.631Z,1012.32
2017-05-01T00:53:18.845Z,1012.29
2017-05-01T00:54:28.710Z,1012.25
2017-05-01T00:55:38.256Z,1012.25
2017-05-01T00:56:47.515Z,1012.26
2017-05-01T00:57:56.733Z,1012.34
2017-05-01T00:59:06.273Z,1012.25
2017-05-01T01:00:15.822Z,1012.18
2017-05-01T01:01:24.712Z,1012.21
2017-05-01T01:02:34.348Z,1012.24
2017-05-01T01:03:44.546Z,1012.21
2017-05-01T01:04:54.091Z,1012.16
2017-05-01T01:06:03.631Z,1012.16
2017-05-01T01:07:12.520Z,1012.23
2017-05-01T01:08:22.106Z,1012.2
2017-05-01T01:09:31.649Z,1012.2
2017-05-01T01:10:40.866Z,1012.19
2017-05-01T01:11:49.754Z,1012.18
2017-05-01T01:12:58.970Z,1012.18
2017-05-01T01:14:08.909Z,1012.16
2017-05-01T01:15:18.768Z,1012.14
2017-05-01T01:16:27.981Z,1012.18
2017-05-01T01:17:36.874Z,1012.2
2017-05-01T01:18:46.418Z,1012.17
2017-05-01T01:19:56.387Z,1012.19
2017-05-01T01:21:05.926Z,1012.15
2017-05-01T01:22:15.141Z,1012.2
2017-05-01T01:23:24.035Z,1012.18
2017-05-01T01:24:33.251Z,1012.19
2017-05-01T01:25:42.620Z,1012.13
2017-05-01T01:26:51.510Z,1012.2
2017-05-01T01:28:00.725Z,1012.15
2017-05-01T01:29:09.612Z,1012.14
2017-05-01T01:30:18.828Z,1012.12
2017-05-01T01:31:28.040Z,1012.14
2017-05-01T01:32:36.927Z,1012.11
2017-05-01T01:33:46.799Z,1012.12
2017-05-01T01:34:56.015Z,1012.08
2017-05-01T01:36:04.904Z,1012.12
2017-05-01T01:37:13.845Z,1012.14
2017-05-01T01:38:23.061Z,1012.17
2017-05-01T01:39:32.600Z,1012.11
2017-05-01T01:40:42.136Z,1012.14
2017-05-01T01:41:51.668Z,1012.1
2017-05-01T01:43:00.711Z,1012.13
2017-05-01T01:44:10.622Z,1012.13
2017-05-01T01:45:19.837Z,1012.08
2017-05-01T01:46:28.724Z,1012.07
2017-05-01T01:47:37.943Z,1012.09
2017-05-01T01:48:47.315Z,1012.07
2017-05-01T01:49:57.185Z,1012.03
2017-05-01T01:51:06.403Z,1012.05
2017-05-01T01:52:15.620Z,1012.02
2017-05-01T01:53:24.512Z,1012.05
2017-05-01T01:54:34.050Z,1012.05
2017-05-01T01:55:43.264Z,1012.01
2017-05-01T01:56:52.477Z,1012.06
2017-05-01T01:58:02.016Z,1012
2017-05-01T01:59:11.239Z,1012.02
2017-05-01T02:00:20.841Z,1012.04
2017-05-01T02:01:30.063Z,1012.02
2017-05-01T02:02:39.598Z,1012.01
2017-05-01T02:03:48.484Z,1012
2017-05-01T02:04:58.347Z,1012.01
2017-05-01T02:06:07.335Z,1012.03
2017-05-01T02:07:16.550Z,1012.02
2017-05-01T02:08:26.414Z,1011.95
2017-05-01T02:09:35.625Z,1011.97
2017-05-01T02:10:44.838Z,1011.99
2017-05-01T02:11:53.785Z,1011.96
2017-05-01T02:13:02.999Z,1012.06
2017-05-01T02:14:12.550Z,1011.92
2017-05-01T02:15:21.764Z,1011.95
2017-05-01T02:16:30.652Z,1011.97
2017-05-01T02:17:39.920Z,1011.9
2017-05-01T02:18:49.789Z,1011.9
2017-05-01T02:19:59.660Z,1011.9
2017-05-01T02:21:08.871Z,1011.86
2017-05-01T02:22:17.759Z,1011.79
2017-05-01T02:23:27.031Z,1011.83
2017-05-01T02:24:35.925Z,1011.78
2017-05-01T02:25:44.813Z,1011.69
2017-05-01T02:26:54.037Z,1011.73
2017-05-01T02:28:03.260Z,1011.8
2017-05-01T02:29:12.524Z,1011.76
2017-05-01T02:30:22.394Z,1011.78
2017-05-01T02:31:31.618Z,1011.76
2017-05-01T02:32:41.160Z,1011.8
2017-05-01T02:33:50.390Z,1011.79
2017-05-01T02:34:59.763Z,1011.82
2017-05-01T02:36:08.657Z,1011.84
2017-05-01T02:37:17.875Z,1011.82
2017-05-01T02:38:26.765Z,1011.82
2017-05-01T02:39:35.984Z,1011.81
2017-05-01T02:40:45.676Z,1011.8
2017-05-01T02:41:54.566Z,1011.72
2017-05-01T02:43:03.799Z,1011.79
2017-05-01T02:44:13.013Z,1011.77
2017-05-01T02:45:22.553Z,1011.84
2017-05-01T02:46:31.595Z,1011.76
2017-05-01T02:47:40.492Z,1011.76
2017-05-01T02:48:49.711Z,1011.76
2017-05-01T02:49:59.585Z,1011.73
2017-05-01T02:51:08.801Z,1011.7
2017-05-01T02:52:18.171Z,1011.71
2017-05-01T02:53:27.714Z,1011.73
2017-05-01T02:54:36.935Z,1011.72
2017-05-01T02:55:46.153Z,1011.75
2017-05-01T02:56:55.697Z,1011.73
2017-05-01T02:58:04.749Z,1011.7
2017-05-01T02:59:14.294Z,1011.7
2017-05-01T03:00:24.155Z,1011.76
2017-05-01T03:01:33.369Z,1011.74
2017-05-01T03:02:42.256Z,1011.71
2017-05-01T03:03:51.246Z,1011.78
2017-05-01T03:05:00.491Z,1011.8
2017-05-01T03:06:10.355Z,1011.79
2017-05-01T03:07:19.895Z,1011.73
2017-05-01T03:08:29.445Z,1011.78
2017-05-01T03:09:38.438Z,1011.72
2017-05-01T03:10:47.328Z,1011.74
2017-05-01T03:11:56.873Z,1011.78
2017-05-01T03:13:06.095Z,1011.71
2017-05-01T03:14:14.987Z,1011.73
2017-05-01T03:15:24.724Z,1011.73
2017-05-01T03:16:33.609Z,1011.7
2017-05-01T03:17:42.501Z,1011.7
2017-05-01T03:18:51.723Z,1011.69
2017-05-01T03:20:01.266Z,1011.67
2017-05-01T03:21:10.909Z,1011.68
2017-05-01T03:22:20.127Z,1011.67
2017-05-01T03:23:29.016Z,1011.65
2017-05-01T03:24:38.889Z,1011.63
2017-05-01T03:25:48.115Z,1011.63
2017-05-01T03:26:57.335Z,1011.72
2017-05-01T03:28:06.224Z,1011.72
2017-05-01T03:29:16.096Z,1011.72
2017-05-01T03:30:25.309Z,1011.72
2017-05-01T03:31:34.198Z,1011.75
2017-05-01T03:32:43.465Z,1011.7
2017-05-01T03:33:52.679Z,1011.71
2017-05-01T03:35:02.545Z,1011.71
2017-05-01T03:36:11.758Z,1011.72
2017-05-01T03:37:21.625Z,1011.7
2017-05-01T03:38:30.993Z,1011.67
2017-05-01T03:39:40.532Z,1011.64
2017-05-01T03:40:50.072Z,1011.7
2017-05-01T03:41:58.959Z,1011.69
2017-05-01T03:43:08.501Z,1011.69
2017-05-01T03:44:18.521Z,1011.69
2017-05-01T03:45:28.070Z,1011.75
2017-05-01T03:46:36.962Z,1011.71
2017-05-01T03:47:46.181Z,1011.73
2017-05-01T03:48:55.723Z,1011.76
2017-05-01T03:50:05.244Z,1011.7
2017-05-01T03:51:14.460Z,1011.75
2017-05-01T03:52:23.677Z,1011.75
2017-05-01T03:53:32.930Z,1011.77
2017-05-01T03:54:42.468Z,1011.72
2017-05-01T03:55:52.307Z,1011.73
2017-05-01T03:57:01.520Z,1011.75
2017-05-01T03:58:11.058Z,1011.72
2017-05-01T03:59:20.924Z,1011.78
2017-05-01T04:00:30.463Z,1011.74
2017-05-01T04:01:39.783Z,1011.71
2017-05-01T04:02:48.997Z,1011.72
2017-05-01T04:03:58.222Z,1011.78
2017-05-01T04:05:07.776Z,1011.73
2017-05-01T04:06:17.316Z,1011.75
2017-05-01T04:07:26.679Z,1011.81
2017-05-01T04:08:36.216Z,1011.79
2017-05-01T04:09:45.430Z,1011.81
2017-05-01T04:10:54.969Z,1011.83
2017-05-01T04:12:04.181Z,1011.89
2017-05-01T04:13:13.448Z,1011.82
2017-05-01T04:14:22.665Z,1011.84
2017-05-01T04:15:31.878Z,1011.87
2017-05-01T04:16:40.764Z,1011.88
2017-05-01T04:17:49.977Z,1011.89
2017-05-01T04:19:00.004Z,1011.91
2017-05-01T04:20:10.201Z,1011.84
2017-05-01T04:21:19.090Z,1011.93
2017-05-01T04:22:27.982Z,1011.88
2017-05-01T04:23:36.869Z,1011.9
2017-05-01T04:24:46.037Z,1011.9
2017-05-01T04:25:55.580Z,1011.85
2017-05-01T04:27:05.115Z,1011.88
2017-05-01T04:28:14.365Z,1011.82
2017-05-01T04:29:24.241Z,1011.87
2017-05-01T04:30:33.460Z,1011.85
2017-05-01T04:31:42.680Z,1011.89
2017-05-01T04:32:52.251Z,1011.86
2017-05-01T04:34:01.796Z,1011.86
2017-05-01T04:35:11.666Z,1011.9
2017-05-01T04:36:21.501Z,1011.95
2017-05-01T04:37:30.720Z,1011.97
2017-05-01T04:38:39.933Z,1011.89
2017-05-01T04:39:48.829Z,1011.92
2017-05-01T04:40:57.721Z,1011.94
2017-05-01T04:42:07.413Z,1011.93
2017-05-01T04:43:16.957Z,1011.9
2017-05-01T04:44:26.822Z,1011.92
2017-05-01T04:45:36.071Z,1011.9
2017-05-01T04:46:45.285Z,1011.94
2017-05-01T04:47:54.244Z,1011.89
2017-05-01T04:49:03.135Z,1011.9
2017-05-01T04:50:12.675Z,1011.85
2017-05-01T04:51:21.884Z,1011.87
2017-05-01T04:52:30.776Z,1011.9
2017-05-01T04:53:40.143Z,1011.87
2017-05-01T04:54:49.686Z,1011.96
2017-05-01T04:55:58.912Z,1011.91
2017-05-01T04:57:08.127Z,1011.93
2017-05-01T04:58:17.338Z,1011.96
2017-05-01T04:59:27.031Z,1011.97
2017-05-01T05:00:36.255Z,1012
2017-05-01T05:01:45.154Z,1012.01
2017-05-01T05:02:54.699Z,1012.04
2017-05-01T05:04:04.570Z,1012.07
2017-05-01T05:05:13.840Z,1012.05
2017-05-01T05:06:22.732Z,1012.05
2017-05-01T05:07:32.272Z,1012.08
2017-05-01T05:08:41.166Z,1012.1
2017-05-01T05:09:50.712Z,1012.12
2017-05-01T05:11:00.485Z,1012.13
2017-05-01T05:12:09.384Z,1012.08
2017-05-01T05:13:18.933Z,1012.11
2017-05-01T05:14:28.802Z,1012.1
2017-05-01T05:15:38.021Z,1012.15
2017-05-01T05:16:47.011Z,1012.14
2017-05-01T05:17:56.229Z,1012.12
2017-05-01T05:19:05.448Z,1012.17
2017-05-01T05:20:14.994Z,1012.19
2017-05-01T05:21:23.888Z,1012.15
2017-05-01T05:22:32.933Z,1012.17
2017-05-01T05:23:41.823Z,1012.18
2017-05-01T05:24:51.366Z,1012.16
2017-05-01T05:26:00.586Z,1012.14
2017-05-01T05:27:09.807Z,1012.13
2017-05-01T05:28:19.186Z,1012.16
2017-05-01T05:29:28.079Z,1012.1
2017-05-01T05:30:36.976Z,1012.18
2017-05-01T05:31:45.871Z,1012.16
2017-05-01T05:32:55.086Z,1012.17
2017-05-01T05:34:04.354Z,1012.17
2017-05-01T05:35:14.277Z,1012.13
2017-05-01T05:36:23.170Z,1012.15
2017-05-01T05:37:32.389Z,1012.07
2017-05-01T05:38:41.935Z,1012.12
2017-05-01T05:39:52.012Z,1012.11
2017-05-01T05:41:01.590Z,1012.15
2017-05-01T05:42:11.127Z,1012.12
2017-05-01T05:43:20.666Z,1012.12
2017-05-01T05:44:30.543Z,1012.12
2017-05-01T05:45:39.585Z,1012.11
2017-05-01T05:46:48.482Z,1012.16
2017-05-01T05:47:58.026Z,1012.15
2017-05-01T05:49:06.917Z,1012.22
2017-05-01T05:50:16.458Z,1012.19
2017-05-01T05:51:25.503Z,1012.15
2017-05-01T05:52:34.395Z,1012.22
2017-05-01T05:53:43.944Z,1012.22
2017-05-01T05:54:53.165Z,1012.18
2017-05-01T05:56:02.723Z,1012.19
2017-05-01T05:57:11.665Z,1012.18
2017-05-01T05:58:20.914Z,1012.2
2017-05-01T05:59:30.456Z,1012.24
2017-05-01T06:00:40.007Z,1012.23
2017-05-01T06:01:49.224Z,1012.27
2017-05-01T06:02:58.268Z,1012.33
2017-05-01T06:04:08.465Z,1012.28
2017-05-01T06:05:17.685Z,1012.28
2017-05-01T06:06:26.906Z,1012.27
2017-05-01T06:07:36.129Z,1012.35
2017-05-01T06:08:45.504Z,1012.34
2017-05-01T06:09:54.733Z,1012.31
2017-05-01T06:11:03.622Z,1012.35
2017-05-01T06:12:13.488Z,1012.3
2017-05-01T06:13:22.715Z,1012.33
2017-05-01T06:14:32.742Z,1012.33
2017-05-01T06:15:41.638Z,1012.37
2017-05-01T06:16:50.852Z,1012.33
2017-05-01T06:18:00.069Z,1012.36
2017-05-01T06:19:08.960Z,1012.43
2017-05-01T06:20:19.309Z,1012.41
2017-05-01T06:21:28.206Z,1012.4
2017-05-01T06:22:37.096Z,1012.41
2017-05-01T06:23:46.329Z,1012.39
2017-05-01T06:24:55.552Z,1012.43
2017-05-01T06:26:05.271Z,1012.47
2017-05-01T06:27:14.484Z,1012.48
2017-05-01T06:28:23.701Z,1012.57
2017-05-01T06:29:32.923Z,1012.47
2017-05-01T06:30:42.141Z,1012.43
2017-05-01T06:31:51.388Z,1012.44
2017-05-01T06:33:00.279Z,1012.48
2017-05-01T06:34:09.540Z,1012.5
2017-05-01T06:35:19.081Z,1012.51
2017-05-01T06:36:28.309Z,1012.5
2017-05-01T06:37:37.249Z,1012.5
2017-05-01T06:38:47.129Z,1012.56
2017-05-01T06:39:56.346Z,1012.55
2017-05-01T06:41:05.563Z,1012.58
2017-05-01T06:42:14.464Z,1012.64
2017-05-01T06:43:24.436Z,1012.6
2017-05-01T06:44:34.305Z,1012.62
2017-05-01T06:45:43.519Z,1012.59
2017-05-01T06:46:52.413Z,1012.61
2017-05-01T06:48:01.958Z,1012.61
2017-05-01T06:49:11.229Z,1012.65
2017-05-01T06:50:20.443Z,1012.6
2017-05-01T06:51:29.653Z,1012.66
2017-05-01T06:52:38.870Z,1012.68
2017-05-01T06:53:48.095Z,1012.69
2017-05-01T06:54:57.147Z,1012.62
2017-05-01T06:56:06.377Z,1012.6
2017-05-01T06:57:15.270Z,1012.55
2017-05-01T06:58:24.489Z,1012.62
2017-05-01T06:59:33.706Z,1012.66
2017-05-01T07:00:43.654Z,1012.57
2017-05-01T07:01:52.543Z,1012.6
2017-05-01T07:03:02.088Z,1012.58
2017-05-01T07:04:11.634Z,1012.61
2017-05-01T07:05:21.513Z,1012.61
2017-05-01T07:06:30.458Z,1012.6
2017-05-01T07:07:39.674Z,1012.61
2017-05-01T07:08:49.588Z,1012.55
2017-05-01T07:09:58.820Z,1012.55
2017-05-01T07:11:08.374Z,1012.56
2017-05-01T07:12:17.395Z,1012.57
2017-05-01T07:13:26.286Z,1012.58
2017-05-01T07:14:35.830Z,1012.59
2017-05-01T07:15:45.050Z,1012.53
2017-05-01T07:16:53.942Z,1012.58
2017-05-01T07:18:04.060Z,1012.51
2017-05-01T07:19:13.925Z,1012.5
2017-05-01T07:20:23.145Z,1012.45
2017-05-01T07:21:32.037Z,1012.45
2017-05-01T07:22:41.574Z,1012.48
2017-05-01T07:23:51.166Z,1012.47
2017-05-01T07:25:00.709Z,1012.51
2017-05-01T07:26:09.621Z,1012.5
2017-05-01T07:27:18.840Z,1012.43
2017-05-01T07:28:27.732Z,1012.48
2017-05-01T07:29:37.000Z,1012.53
2017-05-01T07:30:46.224Z,1012.47
2017-05-01T07:31:55.118Z,1012.43
2017-05-01T07:33:04.338Z,1012.48
2017-05-01T07:34:13.233Z,1012.5
2017-05-01T07:35:22.129Z,1012.48
2017-05-01T07:36:31.025Z,1012.5
2017-05-01T07:37:40.574Z,1012.51
2017-05-01T07:38:50.121Z,1012.46
2017-05-01T07:39:59.339Z,1012.53
2017-05-01T07:41:08.282Z,1012.52
2017-05-01T07:42:17.177Z,1012.46
2017-05-01T07:43:26.405Z,1012.51
2017-05-01T07:44:36.276Z,1012.49
2017-05-01T07:45:45.819Z,1012.5
2017-05-01T07:46:54.761Z,1012.48
2017-05-01T07:48:04.305Z,1012.53
2017-05-01T07:49:13.206Z,1012.51
2017-05-01T07:50:22.753Z,1012.43
2017-05-01T07:51:31.973Z,1012.51
2017-05-01T07:52:41.497Z,1012.54
2017-05-01T07:53:51.367Z,1012.47
2017-05-01T07:55:01.258Z,1012.55
2017-05-01T07:56:10.156Z,1012.53
2017-05-01T07:57:19.702Z,1012.52
2017-05-01T07:58:28.746Z,1012.54
2017-05-01T07:59:37.967Z,1012.56
2017-05-01T08:00:47.226Z,1012.57
2017-05-01T08:01:56.781Z,1012.47
2017-05-01T08:03:05.670Z,1012.51
2017-05-01T08:04:15.268Z,1012.54
2017-05-01T08:05:24.814Z,1012.56
2017-05-01T08:06:34.354Z,1012.55
2017-05-01T08:07:43.894Z,1012.54
2017-05-01T08:08:53.119Z,1012.57
2017-05-01T08:10:02.390Z,1012.63
2017-05-01T08:11:11.281Z,1012.61
2017-05-01T08:12:20.184Z,1012.54
2017-05-01T08:13:29.730Z,1012.57
2017-05-01T08:14:38.999Z,1012.6
2017-05-01T08:15:47.998Z,1012.54
2017-05-01T08:16:57.223Z,1012.6
2017-05-01T08:18:06.763Z,1012.65
2017-05-01T08:19:16.316Z,1012.57
2017-05-01T08:20:25.210Z,1012.6
2017-05-01T08:21:34.836Z,1012.63
2017-05-01T08:22:43.736Z,1012.65
2017-05-01T08:23:52.957Z,1012.6
2017-05-01T08:25:02.507Z,1012.63
2017-05-01T08:26:11.404Z,1012.67
2017-05-01T08:27:21.249Z,1012.69
2017-05-01T08:28:30.149Z,1012.72
2017-05-01T08:29:39.046Z,1012.75
2017-05-01T08:30:48.268Z,1012.72
2017-05-01T08:31:57.161Z,1012.66
2017-05-01T08:33:06.443Z,1012.69
2017-05-01T08:34:15.666Z,1012.75
2017-05-01T08:35:25.866Z,1012.66
2017-05-01T08:36:35.087Z,1012.72
2017-05-01T08:37:44.305Z,1012.67
2017-05-01T08:38:53.780Z,1012.75
2017-05-01T08:40:03.654Z,1012.69
2017-05-01T08:41:12.876Z,1012.67
2017-05-01T08:42:21.773Z,1012.65
2017-05-01T08:43:30.671Z,1012.69
2017-05-01T08:44:39.944Z,1012.73
2017-05-01T08:45:49.171Z,1012.73
2017-05-01T08:46:58.082Z,1012.74
2017-05-01T08:48:06.979Z,1012.72
2017-05-01T08:49:16.530Z,1012.74
2017-05-01T08:50:25.904Z,1012.67
2017-05-01T08:51:35.458Z,1012.7
2017-05-01T08:52:44.679Z,1012.81
2017-05-01T08:53:54.231Z,1012.83
2017-05-01T08:55:03.791Z,1012.7
2017-05-01T08:56:13.362Z,1012.72
2017-05-01T08:57:22.586Z,1012.72
2017-05-01T08:58:31.812Z,1012.69
2017-05-01T08:59:41.037Z,1012.69
2017-05-01T09:00:50.258Z,1012.76
2017-05-01T09:01:59.402Z,1012.72
2017-05-01T09:03:08.944Z,1012.68
2017-05-01T09:04:18.494Z,1012.71
2017-05-01T09:05:27.399Z,1012.67
2017-05-01T09:06:36.302Z,1012.64
2017-05-01T09:07:45.286Z,1012.64
2017-05-01T09:08:54.188Z,1012.71
2017-05-01T09:10:03.734Z,1012.66
2017-05-01T09:11:12.629Z,1012.68
2017-05-01T09:12:22.498Z,1012.71
2017-05-01T09:13:31.873Z,1012.71
2017-05-01T09:14:40.770Z,1012.65
2017-05-01T09:15:49.663Z,1012.59
2017-05-01T09:16:58.558Z,1012.6
2017-05-01T09:18:07.457Z,1012.58
2017-05-01T09:19:16.458Z,1012.62
2017-05-01T09:20:25.680Z,1012.62
2017-05-01T09:21:34.904Z,1012.62
2017-05-01T09:22:44.453Z,1012.63
2017-05-01T09:23:53.672Z,1012.66
2017-05-01T09:25:03.046Z,1012.64
2017-05-01T09:26:12.267Z,1012.55
2017-05-01T09:27:21.808Z,1012.54
2017-05-01T09:28:31.027Z,1012.52
2017-05-01T09:29:40.579Z,1012.57
2017-05-01T09:30:49.954Z,1012.54
2017-05-01T09:31:59.177Z,1012.6
2017-05-01T09:33:08.076Z,1012.53
2017-05-01T09:34:17.633Z,1012.56
2017-05-01T09:35:27.183Z,1012.55
2017-05-01T09:36:36.554Z,1012.5
2017-05-01T09:37:45.775Z,1012.52
2017-05-01T09:38:55.981Z,1012.5
2017-05-01T09:40:05.205Z,1012.44
2017-05-01T09:41:14.443Z,1012.51
2017-05-01T09:42:23.495Z,1012.57
2017-05-01T09:43:32.393Z,1012.54
2017-05-01T09:44:41.621Z,1012.58
2017-05-01T09:45:50.518Z,1012.56
2017-05-01T09:47:00.068Z,1012.57
2017-05-01T09:48:09.441Z,1012.59
2017-05-01T09:49:19.318Z,1012.61
2017-05-01T09:50:28.875Z,1012.58
2017-05-01T09:51:37.781Z,1012.59
2017-05-01T09:52:47.038Z,1012.58
2017-05-01T09:53:57.067Z,1012.64
2017-05-01T09:55:06.292Z,1012.61
2017-05-01T09:56:15.518Z,1012.64
2017-05-01T09:57:24.417Z,1012.66
2017-05-01T09:58:33.325Z,1012.66
2017-05-01T09:59:42.605Z,1012.67
2017-05-01T10:00:51.835Z,1012.62
2017-05-01T10:02:00.738Z,1012.68
2017-05-01T10:03:10.290Z,1012.69
2017-05-01T10:04:20.171Z,1012.73
2017-05-01T10:05:29.218Z,1012.7
2017-05-01T10:06:38.119Z,1012.72
2017-05-01T10:07:47.667Z,1012.7
2017-05-01T10:08:57.544Z,1012.65
2017-05-01T10:10:07.099Z,1012.7
2017-05-01T10:11:16.148Z,1012.74
2017-05-01T10:12:25.700Z,1012.73
2017-05-01T10:13:34.598Z,1012.74
2017-05-01T10:14:43.820Z,1012.7
2017-05-01T10:15:53.051Z,1012.64
2017-05-01T10:17:02.058Z,1012.72
2017-05-01T10:18:11.283Z,1012.73
2017-05-01T10:19:20.190Z,1012.71
2017-05-01T10:20:30.068Z,1012.69
2017-05-01T10:21:38.967Z,1012.68
2017-05-01T10:22:48.342Z,1012.7
2017-05-01T10:23:58.220Z,1012.7
2017-05-01T10:25:07.449Z,1012.65
2017-05-01T10:26:16.359Z,1012.74
2017-05-01T10:27:25.262Z,1012.72
2017-05-01T10:28:34.209Z,1012.78
2017-05-01T10:29:43.111Z,1012.71
2017-05-01T10:30:52.335Z,1012.68
2017-05-01T10:32:01.235Z,1012.62
2017-05-01T10:33:10.492Z,1012.73
2017-05-01T10:34:20.095Z,1012.69
2017-05-01T10:35:29.648Z,1012.72
2017-05-01T10:36:38.556Z,1012.67
2017-05-01T10:37:47.781Z,1012.64
2017-05-01T10:38:57.006Z,1012.72
2017-05-01T10:40:06.646Z,1012.7
2017-05-01T10:41:15.866Z,1012.68
2017-05-01T10:42:24.760Z,1012.69
2017-05-01T10:43:34.314Z,1012.6
2017-05-01T10:44:43.870Z,1012.69
2017-05-01T10:45:53.350Z,1012.69
2017-05-01T10:47:02.573Z,1012.7
2017-05-01T10:48:12.457Z,1012.68
2017-05-01T10:49:22.022Z,1012.64
2017-05-01T10:50:30.929Z,1012.65
2017-05-01T10:51:40.156Z,1012.65
2017-05-01T10:52:49.707Z,1012.62
2017-05-01T10:53:58.941Z,1012.61
2017-05-01T10:55:08.826Z,1012.59
2017-05-01T10:56:17.726Z,1012.64
2017-05-01T10:57:26.979Z,1012.58
2017-05-01T10:58:36.208Z,1012.61
2017-05-01T10:59:45.432Z,1012.6
2017-05-01T11:00:54.334Z,1012.69
2017-05-01T11:02:03.238Z,1012.58
2017-05-01T11:03:12.242Z,1012.57
2017-05-01T11:04:21.829Z,1012.61
2017-05-01T11:05:31.056Z,1012.64
2017-05-01T11:06:39.954Z,1012.62
2017-05-01T11:07:48.854Z,1012.62
2017-05-01T11:08:58.335Z,1012.61
2017-05-01T11:10:07.885Z,1012.56
2017-05-01T11:11:16.783Z,1012.65
2017-05-01T11:12:26.339Z,1012.62
2017-05-01T11:13:35.246Z,1012.63
2017-05-01T11:14:44.800Z,1012.59
2017-05-01T11:15:54.353Z,1012.67
2017-05-01T11:17:03.254Z,1012.62
2017-05-01T11:18:12.155Z,1012.69
2017-05-01T11:19:22.036Z,1012.68
2017-05-01T11:20:31.092Z,1012.66
2017-05-01T11:21:40.043Z,1012.68
2017-05-01T11:22:48.945Z,1012.61
2017-05-01T11:23:58.171Z,1012.73
2017-05-01T11:25:07.399Z,1012.69
2017-05-01T11:26:16.708Z,1012.69
2017-05-01T11:27:25.931Z,1012.69
2017-05-01T11:28:34.839Z,1012.66
2017-05-01T11:29:43.740Z,1012.75
2017-05-01T11:30:52.971Z,1012.7
2017-05-01T11:32:02.959Z,1012.74
2017-05-01T11:33:12.520Z,1012.71
2017-05-01T11:34:21.418Z,1012.68
2017-05-01T11:35:30.645Z,1012.66
2017-05-01T11:36:40.204Z,1012.71
2017-05-01T11:37:49.756Z,1012.72
2017-05-01T11:38:59.314Z,1012.7
2017-05-01T11:40:08.550Z,1012.68
2017-05-01T11:41:17.776Z,1012.65
2017-05-01T11:42:27.328Z,1012.77
2017-05-01T11:43:36.764Z,1012.69
2017-05-01T11:44:46.972Z,1012.74
2017-05-01T11:45:55.876Z,1012.7
2017-05-01T11:47:04.779Z,1012.75
2017-05-01T11:48:14.004Z,1012.74
2017-05-01T11:49:23.483Z,1012.71
2017-05-01T11:50:33.036Z,1012.7
2017-05-01T11:51:41.942Z,1012.76
2017-05-01T11:52:51.170Z,1012.78
2017-05-01T11:54:00.732Z,1012.71
2017-05-01T11:55:10.121Z,1012.81
2017-05-01T11:56:19.030Z,1012.71
2017-05-01T11:57:28.256Z,1012.72
2017-05-01T11:58:37.160Z,1012.73
2017-05-01T11:59:46.712Z,1012.74
2017-05-01T12:00:56.040Z,1012.78
2017-05-01T12:02:05.265Z,1012.82
2017-05-01T12:03:14.490Z,1012.79
2017-05-01T12:04:23.718Z,1012.8
2017-05-01T12:05:32.619Z,1012.82
2017-05-01T12:06:41.946Z,1012.83
2017-05-01T12:07:50.847Z,1012.81
2017-05-01T12:09:00.727Z,1012.92
2017-05-01T12:10:09.627Z,1012.88
2017-05-01T12:11:18.533Z,1012.84
2017-05-01T12:12:27.582Z,1012.91
2017-05-01T12:13:37.510Z,1012.87
2017-05-01T12:14:46.737Z,1012.93
2017-05-01T12:15:56.949Z,1012.88
2017-05-01T12:17:06.502Z,1012.87
2017-05-01T12:18:15.783Z,1012.81
2017-05-01T12:19:25.012Z,1012.81
2017-05-01T12:20:34.242Z,1012.85
2017-05-01T12:21:43.798Z,1012.9
2017-05-01T12:22:53.026Z,1012.9
2017-05-01T12:24:02.411Z,1012.95
2017-05-01T12:25:11.643Z,1012.87
2017-05-01T12:26:20.873Z,1012.85
2017-05-01T12:27:30.097Z,1012.86
2017-05-01T12:28:39.326Z,1012.91
2017-05-01T12:29:48.929Z,1012.93
2017-05-01T12:30:58.812Z,1012.91
2017-05-01T12:32:07.721Z,1012.96
2017-05-01T12:33:16.951Z,1012.94
2017-05-01T12:34:26.833Z,1012.96
2017-05-01T12:35:36.738Z,1012.96
2017-05-01T12:36:45.965Z,1012.96
2017-05-01T12:37:55.191Z,1012.92
2017-05-01T12:39:04.750Z,1013.04
2017-05-01T12:40:14.655Z,1012.93
2017-05-01T12:41:24.263Z,1012.94
2017-05-01T12:42:33.492Z,1013.02
2017-05-01T12:43:42.723Z,1013.02
2017-05-01T12:44:52.280Z,1013.06
2017-05-01T12:46:01.185Z,1013.16
2017-05-01T12:47:10.141Z,1013.14
2017-05-01T12:48:19.697Z,1013.13
2017-05-01T12:49:29.256Z,1013.17
2017-05-01T12:50:38.490Z,1013.17
2017-05-01T12:51:47.721Z,1013.16
2017-05-01T12:52:56.935Z,1013.14
2017-05-01T12:54:05.853Z,1013.09
2017-05-01T12:55:15.084Z,1013.09
2017-05-01T12:56:24.328Z,1013.1
2017-05-01T12:57:33.566Z,1013.05
2017-05-01T12:58:43.550Z,1013.07
2017-05-01T12:59:52.792Z,1013.1
2017-05-01T13:01:02.346Z,1013.17
2017-05-01T13:02:11.256Z,1013.16
2017-05-01T13:03:20.813Z,1013.25
2017-05-01T13:04:30.698Z,1013.24
2017-05-01T13:05:39.938Z,1013.19
2017-05-01T13:06:48.844Z,1013.2
2017-05-01T13:07:57.750Z,1013.25
2017-05-01T13:09:06.981Z,1013.18
2017-05-01T13:10:16.262Z,1013.27
2017-05-01T13:11:25.172Z,1013.29
2017-05-01T13:12:34.404Z,1013.29
2017-05-01T13:13:43.966Z,1013.28
2017-05-01T13:14:53.851Z,1013.21
2017-05-01T13:16:03.237Z,1013.27
2017-05-01T13:17:12.467Z,1013.26
2017-05-01T13:18:21.376Z,1013.29
2017-05-01T13:19:30.936Z,1013.33
2017-05-01T13:20:40.182Z,1013.35
2017-05-01T13:21:49.395Z,1013.32
2017-05-01T13:22:58.308Z,1013.32
2017-05-01T13:24:07.219Z,1013.25
2017-05-01T13:25:16.126Z,1013.28
2017-05-01T13:26:25.028Z,1013.22
2017-05-01T13:27:34.084Z,1013.29
2017-05-01T13:28:42.993Z,1013.36
2017-05-01T13:29:52.890Z,1013.26
2017-05-01T13:31:01.804Z,1013.23
2017-05-01T13:32:10.711Z,1013.26
2017-05-01T13:33:20.000Z,1013.3
2017-05-01T13:34:29.895Z,1013.28
2017-05-01T13:35:39.129Z,1013.38
2017-05-01T13:36:48.038Z,1013.31
2017-05-01T13:37:57.599Z,1013.26
2017-05-01T13:39:06.981Z,1013.24
2017-05-01T13:40:16.865Z,1013.31
2017-05-01T13:41:26.097Z,1013.32
2017-05-01T13:42:35.657Z,1013.32
2017-05-01T13:43:44.563Z,1013.28
2017-05-01T13:44:53.946Z,1013.26
2017-05-01T13:46:03.830Z,1013.26
2017-05-01T13:47:13.068Z,1013.21
2017-05-01T13:48:21.978Z,1013.3
2017-05-01T13:49:31.207Z,1013.26
2017-05-01T13:50:40.764Z,1013.27
2017-05-01T13:51:50.000Z,1013.28
2017-05-01T13:52:59.884Z,1013.29
2017-05-01T13:54:09.109Z,1013.34
2017-05-01T13:55:18.992Z,1013.32
2017-05-01T13:56:28.466Z,1013.34
2017-05-01T13:57:37.361Z,1013.39
2017-05-01T13:58:46.265Z,1013.31
2017-05-01T13:59:55.825Z,1013.37
2017-05-01T14:01:05.051Z,1013.35